Greenwich, CT

9:43 PM EST on February 13, 2016 (GMT -0500)
APRSWXNET | | Change Station
CLOSE
Current Station
Personal Weather Station
Location: Port Chester, NY
Elevation: 90 ft
Nearby Weather Stations

Elev 90 ft 41.01 °N, 73.65 °W | Updated 23 days ago

Partly Cloudy
Partly Cloudy
3 °F
Feels Like -17 °F
N
19
Wind Variable Wind from NW
Gusts 32 mph

Today
High -- | Low -- °F
--% Chance of Precip.
Yesterday
High -- | Low -- °F
Precip. -- in
Pressure 30.29 in
Visibility 10.0 miles
Clouds Clear
Windchill -17 °F
Dew Point -14 °F
Humidity 44%
Rainfall in
Snow Depth Not available.
6:52 AM 5:25 PM
Waxing Crescent, 36% visible
METAR KHPN 140156Z 30028G37KT 10SM CLR M16/M27 A3023 RMK AO2 PK WND 31039/0145 SLP255 T11611272
Pressure 30.29 in
Visibility 10.0 miles
Clouds Clear
Windchill -17 °F
Dew Point -14 °F
Humidity 44%
Rainfall in
Snow Depth Not available.
6:52 AM 5:25 PM
Waxing Crescent, 36% visible
METAR KHPN 140156Z 30028G37KT 10SM CLR M16/M27 A3023 RMK AO2 PK WND 31039/0145 SLP255 T11611272

10-Day Weather Forecast

Almanac

Astronomy

Feb. 13, 2016 Rise Set
Actual Time
Civil Twilight
Nautical Twilight
Astronomical Twilight
Moon
Length of Visible Light
Length of Day
Tomorrow will be .
, % of the Moon is Illuminated

Today's Extremes

State Highs State Lows

Community

WunderPhotos

Upload Photos

1,892,731 photos uploaded!

WunderBlog® & News

Nearby

Air Quality

  Air Quality AQ Index Pollutant
Not available.

Snow Depth

Station Depth Elevation

Earthquake Activity

City Distance Mag. Time & Date
Minimum magnitude displayed is 2.5.

Coastal Water Temperatures

Place Temperature

Stations

Nearby Weather Stations

Station Location Temp. Windchill Dew Point Humidity Wind Precip. Elev Updated Type
                   

Watches & Warnings

There are currently no watches in effect.